ADDS METAR Data INFO
IDs: Format: Raw Decoded Include TAF

Data at: 0806 UTC 23 Jul 2018

KTUP 230753Z AUTO 33007KT 10SM CLR 22/18 RMK AO2 SLPNO T02220183 $
KTUP 230653Z AUTO 33007KT 10SM CLR 23/19 RMK AO2 SLPNO T02330189 $
KTUP 230553Z AUTO 30003KT 10SM CLR 24/19 RMK AO2 SLPNO T02390194 10294 20233 403170228 $
KTUP 230453Z AUTO 34005KT 10SM BKN065 BKN080 23/20 RMK AO2 SLPNO T02330200 $
KTUP 230353Z AUTO 34004KT 10SM FEW065 FEW075 24/20 RMK AO2 SLPNO T02440200 $
KTUP 230253Z AUTO 35003KT 10SM CLR 24/20 RMK AO2 SLPNO T02440200 $
KTUP 230153Z 31005KT 10SM CLR 27/19 A2984 RMK AO2 SLP100 T02670194 $
KTUP 230053Z 31004KT 10SM CLR 28/19 A2981 RMK AO2 SLP089 T02780194 $
KTUP 222353Z 31006KT 10SM CLR 29/18 A2981 RMK AO2 SLP089 T02890183 10317 20283 55014 $
KTUP 222253Z 28008KT 10SM BKN060 31/18 A2978 RMK AO2 SLP079 T03060178 $
KTUP 222153Z 28009G16KT 10SM BKN055 31/17 A2980 RMK AO2 SLP086 T03060172 $
KTUP 222053Z 30010G17KT 10SM CLR 31/18 A2985 RMK AO2 SLP103 T03110178 55003 $
KTUP 221953Z 29008KT 10SM FEW049 SCT070 30/18 A2983 RMK AO2 SLP096 T03000183 $
KTUP 221853Z 29007KT 10SM FEW050 FEW065 31/19 A2985 RMK AO2 SLP103 T03110189 $
KTUP 221753Z VRB05G14KT 10SM FEW045 31/18 A2986 RMK AO2 SLP106 T03110183 10311 20239 58010 $
KTUP 221653Z 29005KT 10SM CLR 31/19 A2989 RMK AO2 SLP117 T03060194 $
KTUP 221553Z 29006KT 10SM CLR 29/19 A2988 RMK AO2 SLP113 T02940189 $
KTUP 221453Z VRB03KT 10SM CLR 28/19 A2989 RMK AO2 SLP117 T02830194 53010 $
KTUP 221353Z 35007KT 10SM CLR 27/20 A2987 RMK AO2 SLP110 T02670200 $
KTUP 221253Z 32005KT 10SM CLR 26/21 A2987 RMK AO2 SLP110 T02560206 $
KTUP 221153Z 31003KT 10SM CLR 24/21 A2986 RMK AO2 SLP106 T02390211 10250 20228 $
KTUP 221053Z 00000KT 10SM CLR 23/21 RMK AO2 SLPNO T02280206 $
KTUP 220953Z AUTO 00000KT 10SM CLR 23/21 RMK AO2 SLPNO T02330211 $
KTUP 220853Z AUTO 32003KT 10SM CLR 24/21 RMK AO2 SLPNO T02390211 $
KTUP 220753Z AUTO 34005KT 10SM CLR 23/22 RMK AO2 SLPNO T02330217 $
KTUP 220653Z AUTO 00000KT 10SM CLR 25/22 RMK AO2 SLPNO T02500222 $
KTUP 220553Z AUTO 00000KT 10SM CLR 24/22 RMK AO2 SLPNO T02390222 10317 20239 403440239 $
KTUP 220453Z AUTO 00000KT 10SM CLR 24/22 RMK AO2 SLPNO T02440222 $
KTUP 220353Z AUTO 00000KT 10SM CLR 25/22 RMK AO2 SLPNO T02500222 $
KTUP 220253Z VRB04KT 10SM CLR 27/26 A2984 RMK AO2 SLP100 T02670261 $
KTUP 220153Z VRB04KT 10SM CLR 28/22 A2985 RMK AO2 SLP102 T02780222 $
KTUP 220053Z 28004KT 10SM CLR 29/21 A2984 RMK AO2 SLP099 T02940211
KTUP 212353Z 28006KT 10SM CLR 32/21 A2983 RMK AO2 SLP095 T03170206 10344 20317 54000
KTUP 212253Z 28007KT 10SM CLR 33/21 A2983 RMK AO2 SLP094 T03280211
KTUP 212153Z VRB05KT 10SM SCT043 SCT055 33/22 A2983 RMK AO2 SLP096 T03330222
KTUP 212053Z VRB05KT 10SM FEW041 34/23 A2983 RMK AO2 SLP095 T03390228 58008 $